sensor_id;sensor_type;location;lat;lon;timestamp;temperature;humidity
65766;SHT31;52915;53.718;19.946;2022-12-07T00:04:48;3.22;88.29
65766;SHT31;52915;53.718;19.946;2022-12-07T00:09:52;3.23;88.27
65766;SHT31;52915;53.718;19.946;2022-12-07T00:14:56;3.19;88.15
65766;SHT31;52915;53.718;19.946;2022-12-07T00:20:00;3.16;88.18
65766;SHT31;52915;53.718;19.946;2022-12-07T00:25:04;3.14;88.08
65766;SHT31;52915;53.718;19.946;2022-12-07T00:30:08;3.11;88.04
65766;SHT31;52915;53.718;19.946;2022-12-07T00:35:12;3.17;88.02
65766;SHT31;52915;53.718;19.946;2022-12-07T00:40:17;3.18;87.86
65766;SHT31;52915;53.718;19.946;2022-12-07T00:45:20;3.06;87.80
65766;SHT31;52915;53.718;19.946;2022-12-07T00:50:24;2.93;88.07
65766;SHT31;52915;53.718;19.946;2022-12-07T00:55:32;2.98;88.16
65766;SHT31;52915;53.718;19.946;2022-12-07T01:00:37;3.04;88.03
65766;SHT31;52915;53.718;19.946;2022-12-07T01:05:50;3.03;87.93
65766;SHT31;52915;53.718;19.946;2022-12-07T01:10:59;3.11;87.88
65766;SHT31;52915;53.718;19.946;2022-12-07T01:16:06;3.01;87.71
65766;SHT31;52915;53.718;19.946;2022-12-07T01:21:18;2.86;87.95
65766;SHT31;52915;53.718;19.946;2022-12-07T01:26:28;2.88;87.98
65766;SHT31;52915;53.718;19.946;2022-12-07T01:31:32;2.87;87.97
65766;SHT31;52915;53.718;19.946;2022-12-07T01:36:37;2.86;87.92
65766;SHT31;52915;53.718;19.946;2022-12-07T01:41:40;2.91;87.85
65766;SHT31;52915;53.718;19.946;2022-12-07T01:46:50;2.86;87.68
65766;SHT31;52915;53.718;19.946;2022-12-07T01:57:47;2.77;87.69
65766;SHT31;52915;53.718;19.946;2022-12-07T02:02:55;2.74;87.67
65766;SHT31;52915;53.718;19.946;2022-12-07T02:08:12;2.71;87.65
65766;SHT31;52915;53.718;19.946;2022-12-07T02:13:21;2.68;87.68
65766;SHT31;52915;53.718;19.946;2022-12-07T02:29:37;2.55;87.95
65766;SHT31;52915;53.718;19.946;2022-12-07T02:34:50;2.54;87.81
65766;SHT31;52915;53.718;19.946;2022-12-07T02:45:52;2.25;88.22
65766;SHT31;52915;53.718;19.946;2022-12-07T02:51:01;2.24;88.43
65766;SHT31;52915;53.718;19.946;2022-12-07T03:07:11;2.30;88.15
65766;SHT31;52915;53.718;19.946;2022-12-07T03:17:49;2.26;88.36
65766;SHT31;52915;53.718;19.946;2022-12-07T03:22:55;2.29;88.31
65766;SHT31;52915;53.718;19.946;2022-12-07T03:28:02;2.31;88.28
65766;SHT31;52915;53.718;19.946;2022-12-07T03:33:12;2.35;88.18
65766;SHT31;52915;53.718;19.946;2022-12-07T03:38:42;2.28;88.14
65766;SHT31;52915;53.718;19.946;2022-12-07T03:44:02;2.24;88.31
65766;SHT31;52915;53.718;19.946;2022-12-07T03:54:15;2.28;88.25
65766;SHT31;52915;53.718;19.946;2022-12-07T03:59:47;2.23;88.27
65766;SHT31;52915;53.718;19.946;2022-12-07T04:04:51;2.23;88.35
65766;SHT31;52915;53.718;19.946;2022-12-07T04:09:56;2.27;88.34
65766;SHT31;52915;53.718;19.946;2022-12-07T04:15:00;2.29;88.26
65766;SHT31;52915;53.718;19.946;2022-12-07T04:20:05;2.30;88.21
65766;SHT31;52915;53.718;19.946;2022-12-07T04:25:09;2.23;88.11
65766;SHT31;52915;53.718;19.946;2022-12-07T04:30:13;2.19;88.25
65766;SHT31;52915;53.718;19.946;2022-12-07T04:35:17;2.16;88.32
65766;SHT31;52915;53.718;19.946;2022-12-07T04:40:21;2.16;88.37
65766;SHT31;52915;53.718;19.946;2022-12-07T04:45:25;2.17;88.35
65766;SHT31;52915;53.718;19.946;2022-12-07T04:50:29;2.11;88.39
65766;SHT31;52915;53.718;19.946;2022-12-07T04:55:32;2.13;88.42
65766;SHT31;52915;53.718;19.946;2022-12-07T05:00:36;2.04;88.48
65766;SHT31;52915;53.718;19.946;2022-12-07T05:05:41;2.06;88.61
65766;SHT31;52915;53.718;19.946;2022-12-07T05:10:45;2.04;88.56
65766;SHT31;52915;53.718;19.946;2022-12-07T05:15:48;2.04;88.65
65766;SHT31;52915;53.718;19.946;2022-12-07T05:20:52;2.08;88.64
65766;SHT31;52915;53.718;19.946;2022-12-07T05:25:56;2.03;88.59
65766;SHT31;52915;53.718;19.946;2022-12-07T05:31:00;2.02;88.64
65766;SHT31;52915;53.718;19.946;2022-12-07T05:36:05;2.01;88.72
65766;SHT31;52915;53.718;19.946;2022-12-07T05:41:11;2.01;88.71
65766;SHT31;52915;53.718;19.946;2022-12-07T05:46:37;2.02;88.78
65766;SHT31;52915;53.718;19.946;2022-12-07T05:51:41;2.03;88.71
65766;SHT31;52915;53.718;19.946;2022-12-07T05:56:45;2.04;88.72
65766;SHT31;52915;53.718;19.946;2022-12-07T06:01:56;2.07;88.69
65766;SHT31;52915;53.718;19.946;2022-12-07T06:07:14;2.08;88.63
65766;SHT31;52915;53.718;19.946;2022-12-07T06:12:19;2.04;88.70
65766;SHT31;52915;53.718;19.946;2022-12-07T06:17:41;2.03;88.77
65766;SHT31;52915;53.718;19.946;2022-12-07T06:22:45;2.01;88.77
65766;SHT31;52915;53.718;19.946;2022-12-07T06:27:48;2.01;88.84
65766;SHT31;52915;53.718;19.946;2022-12-07T06:32:52;2.00;88.93
65766;SHT31;52915;53.718;19.946;2022-12-07T06:37:56;2.00;88.96
65766;SHT31;52915;53.718;19.946;2022-12-07T06:42:59;2.00;89.07
65766;SHT31;52915;53.718;19.946;2022-12-07T06:48:03;2.04;89.04
65766;SHT31;52915;53.718;19.946;2022-12-07T06:53:08;2.03;89.13
65766;SHT31;52915;53.718;19.946;2022-12-07T06:58:12;2.06;89.14
65766;SHT31;52915;53.718;19.946;2022-12-07T07:03:16;2.08;89.12
65766;SHT31;52915;53.718;19.946;2022-12-07T07:08:20;2.10;89.12
65766;SHT31;52915;53.718;19.946;2022-12-07T07:13:25;2.14;89.13
65766;SHT31;52915;53.718;19.946;2022-12-07T07:18:30;2.15;89.07
65766;SHT31;52915;53.718;19.946;2022-12-07T07:23:34;2.12;89.13
65766;SHT31;52915;53.718;19.946;2022-12-07T07:28:37;2.08;89.21
65766;SHT31;52915;53.718;19.946;2022-12-07T07:33:42;2.08;89.24
65766;SHT31;52915;53.718;19.946;2022-12-07T07:38:46;2.07;89.29
65766;SHT31;52915;53.718;19.946;2022-12-07T07:43:50;2.10;89.33
65766;SHT31;52915;53.718;19.946;2022-12-07T07:48:54;2.13;89.35
65766;SHT31;52915;53.718;19.946;2022-12-07T07:53:58;2.15;89.31
65766;SHT31;52915;53.718;19.946;2022-12-07T07:59:01;2.20;89.31
65766;SHT31;52915;53.718;19.946;2022-12-07T08:04:05;2.25;89.33
65766;SHT31;52915;53.718;19.946;2022-12-07T08:09:09;2.31;89.30
65766;SHT31;52915;53.718;19.946;2022-12-07T08:14:14;2.36;89.22
65766;SHT31;52915;53.718;19.946;2022-12-07T08:19:18;2.39;89.29
65766;SHT31;52915;53.718;19.946;2022-12-07T08:24:22;2.42;89.32
65766;SHT31;52915;53.718;19.946;2022-12-07T08:29:28;2.50;89.31
65766;SHT31;52915;53.718;19.946;2022-12-07T08:34:32;2.57;89.29
65766;SHT31;52915;53.718;19.946;2022-12-07T08:39:36;2.61;89.29
65766;SHT31;52915;53.718;19.946;2022-12-07T08:44:40;2.64;89.30
65766;SHT31;52915;53.718;19.946;2022-12-07T08:49:44;2.66;89.35
65766;SHT31;52915;53.718;19.946;2022-12-07T08:54:53;2.73;89.40
65766;SHT31;52915;53.718;19.946;2022-12-07T08:59:56;2.83;89.32
65766;SHT31;52915;53.718;19.946;2022-12-07T09:05:01;2.93;89.24
65766;SHT31;52915;53.718;19.946;2022-12-07T09:10:06;3.01;89.14
65766;SHT31;52915;53.718;19.946;2022-12-07T09:15:10;3.06;89.05
65766;SHT31;52915;53.718;19.946;2022-12-07T09:20:14;3.14;89.04
65766;SHT31;52915;53.718;19.946;2022-12-07T09:25:18;3.20;88.88
65766;SHT31;52915;53.718;19.946;2022-12-07T09:30:22;3.30;88.75
65766;SHT31;52915;53.718;19.946;2022-12-07T09:35:26;3.35;88.61
65766;SHT31;52915;53.718;19.946;2022-12-07T09:40:30;3.36;88.60
65766;SHT31;52915;53.718;19.946;2022-12-07T09:45:36;3.37;88.55
65766;SHT31;52915;53.718;19.946;2022-12-07T09:50:47;3.39;88.50
65766;SHT31;52915;53.718;19.946;2022-12-07T09:55:53;3.40;88.42
65766;SHT31;52915;53.718;19.946;2022-12-07T10:01:09;3.39;88.35
65766;SHT31;52915;53.718;19.946;2022-12-07T10:06:18;3.40;88.37
65766;SHT31;52915;53.718;19.946;2022-12-07T10:11:23;3.39;88.39
65766;SHT31;52915;53.718;19.946;2022-12-07T10:21:46;3.38;88.28
65766;SHT31;52915;53.718;19.946;2022-12-07T10:27:42;3.39;88.39
65766;SHT31;52915;53.718;19.946;2022-12-07T10:32:38;3.40;88.24
65766;SHT31;52915;53.718;19.946;2022-12-07T10:37:42;3.36;88.15
65766;SHT31;52915;53.718;19.946;2022-12-07T10:42:46;3.35;88.07
65766;SHT31;52915;53.718;19.946;2022-12-07T10:48:38;3.38;87.78
65766;SHT31;52915;53.718;19.946;2022-12-07T10:54:02;3.35;87.71
65766;SHT31;52915;53.718;19.946;2022-12-07T11:11:09;3.40;87.33
65766;SHT31;52915;53.718;19.946;2022-12-07T11:22:17;3.50;86.88
65766;SHT31;52915;53.718;19.946;2022-12-07T11:38:26;3.35;86.11
65766;SHT31;52915;53.718;19.946;2022-12-07T11:43:40;3.29;85.65
65766;SHT31;52915;53.718;19.946;2022-12-07T11:49:10;3.24;85.76
65766;SHT31;52915;53.718;19.946;2022-12-07T11:54:46;3.19;85.75
65766;SHT31;52915;53.718;19.946;2022-12-07T11:59:59;3.11;85.28
65766;SHT31;52915;53.718;19.946;2022-12-07T12:05:16;3.02;85.63
65766;SHT31;52915;53.718;19.946;2022-12-07T12:10:35;3.09;85.86
65766;SHT31;52915;53.718;19.946;2022-12-07T12:22:18;3.00;85.89
65766;SHT31;52915;53.718;19.946;2022-12-07T12:27:29;2.99;85.92
65766;SHT31;52915;53.718;19.946;2022-12-07T12:37:46;2.89;85.14
65766;SHT31;52915;53.718;19.946;2022-12-07T12:42:54;2.89;84.74
65766;SHT31;52915;53.718;19.946;2022-12-07T12:48:00;2.92;84.66
65766;SHT31;52915;53.718;19.946;2022-12-07T12:53:15;2.98;84.74
65766;SHT31;52915;53.718;19.946;2022-12-07T12:58:35;3.04;84.79
65766;SHT31;52915;53.718;19.946;2022-12-07T13:03:41;3.00;84.79
65766;SHT31;52915;53.718;19.946;2022-12-07T13:08:58;2.94;84.82
65766;SHT31;52915;53.718;19.946;2022-12-07T13:24:48;2.71;85.04
65766;SHT31;52915;53.718;19.946;2022-12-07T13:29:53;2.67;85.18
65766;SHT31;52915;53.718;19.946;2022-12-07T13:35:00;2.64;85.32
65766;SHT31;52915;53.718;19.946;2022-12-07T13:40:37;2.61;85.50
65766;SHT31;52915;53.718;19.946;2022-12-07T13:45:41;2.59;85.53
65766;SHT31;52915;53.718;19.946;2022-12-07T13:50:55;2.56;85.76
65766;SHT31;52915;53.718;19.946;2022-12-07T13:56:14;2.52;86.04
65766;SHT31;52915;53.718;19.946;2022-12-07T14:01:19;2.46;86.18
65766;SHT31;52915;53.718;19.946;2022-12-07T14:06:25;2.50;86.28
65766;SHT31;52915;53.718;19.946;2022-12-07T14:11:31;2.46;86.36
65766;SHT31;52915;53.718;19.946;2022-12-07T14:16:35;2.43;86.56
65766;SHT31;52915;53.718;19.946;2022-12-07T14:21:42;2.44;86.65
65766;SHT31;52915;53.718;19.946;2022-12-07T14:26:47;2.45;86.78
65766;SHT31;52915;53.718;19.946;2022-12-07T14:31:53;2.43;86.91
65766;SHT31;52915;53.718;19.946;2022-12-07T14:42:45;2.30;87.43
65766;SHT31;52915;53.718;19.946;2022-12-07T14:47:54;2.28;87.65
65766;SHT31;52915;53.718;19.946;2022-12-07T14:53:18;2.29;87.72
65766;SHT31;52915;53.718;19.946;2022-12-07T14:58:39;2.23;87.81
65766;SHT31;52915;53.718;19.946;2022-12-07T15:03:44;2.13;87.93
65766;SHT31;52915;53.718;19.946;2022-12-07T15:08:49;2.09;88.17
65766;SHT31;52915;53.718;19.946;2022-12-07T15:13:54;2.12;88.19
65766;SHT31;52915;53.718;19.946;2022-12-07T15:19:17;2.08;88.26
65766;SHT31;52915;53.718;19.946;2022-12-07T15:24:31;2.06;88.49
65766;SHT31;52915;53.718;19.946;2022-12-07T15:29:37;2.07;88.56
65766;SHT31;52915;53.718;19.946;2022-12-07T15:34:42;2.09;88.60
65766;SHT31;52915;53.718;19.946;2022-12-07T15:39:46;2.10;88.58
65766;SHT31;52915;53.718;19.946;2022-12-07T15:44:50;2.06;88.64
65766;SHT31;52915;53.718;19.946;2022-12-07T15:50:10;2.04;88.79
65766;SHT31;52915;53.718;19.946;2022-12-07T15:55:18;2.04;88.88
65766;SHT31;52915;53.718;19.946;2022-12-07T16:00:22;2.02;88.90
65766;SHT31;52915;53.718;19.946;2022-12-07T16:05:27;2.01;88.94
65766;SHT31;52915;53.718;19.946;2022-12-07T16:10:32;1.99;89.00
65766;SHT31;52915;53.718;19.946;2022-12-07T16:15:42;2.01;89.00
65766;SHT31;52915;53.718;19.946;2022-12-07T16:20:49;1.97;89.00
65766;SHT31;52915;53.718;19.946;2022-12-07T16:25:53;1.98;89.07
65766;SHT31;52915;53.718;19.946;2022-12-07T16:31:02;2.02;89.03
65766;SHT31;52915;53.718;19.946;2022-12-07T16:36:13;2.04;88.95
65766;SHT31;52915;53.718;19.946;2022-12-07T16:41:39;2.03;88.88
65766;SHT31;52915;53.718;19.946;2022-12-07T16:46:45;1.99;88.86
65766;SHT31;52915;53.718;19.946;2022-12-07T16:51:50;2.00;88.86
65766;SHT31;52915;53.718;19.946;2022-12-07T16:57:15;2.00;88.89
65766;SHT31;52915;53.718;19.946;2022-12-07T17:02:26;1.91;89.00
65766;SHT31;52915;53.718;19.946;2022-12-07T17:07:36;1.93;89.07
65766;SHT31;52915;53.718;19.946;2022-12-07T17:12:47;1.94;88.94
65766;SHT31;52915;53.718;19.946;2022-12-07T17:18:01;1.95;88.88
65766;SHT31;52915;53.718;19.946;2022-12-07T17:23:08;1.91;88.99
65766;SHT31;52915;53.718;19.946;2022-12-07T17:28:13;1.89;89.00
65766;SHT31;52915;53.718;19.946;2022-12-07T17:33:17;1.91;88.96
65766;SHT31;52915;53.718;19.946;2022-12-07T17:38:23;1.92;88.86
65766;SHT31;52915;53.718;19.946;2022-12-07T17:43:26;1.91;88.75
65766;SHT31;52915;53.718;19.946;2022-12-07T17:48:31;1.94;88.60
65766;SHT31;52915;53.718;19.946;2022-12-07T17:53:34;1.98;88.43
65766;SHT31;52915;53.718;19.946;2022-12-07T17:58:38;1.96;88.46
65766;SHT31;52915;53.718;19.946;2022-12-07T18:03:42;1.97;88.51
65766;SHT31;52915;53.718;19.946;2022-12-07T18:08:46;1.99;88.60
65766;SHT31;52915;53.718;19.946;2022-12-07T18:13:49;1.96;88.56
65766;SHT31;52915;53.718;19.946;2022-12-07T18:18:53;1.92;88.50
65766;SHT31;52915;53.718;19.946;2022-12-07T18:23:58;1.93;88.38
65766;SHT31;52915;53.718;19.946;2022-12-07T18:29:07;1.96;88.22
65766;SHT31;52915;53.718;19.946;2022-12-07T18:34:14;1.93;88.02
65766;SHT31;52915;53.718;19.946;2022-12-07T18:39:20;1.93;88.00
65766;SHT31;52915;53.718;19.946;2022-12-07T18:44:24;1.95;87.95
65766;SHT31;52915;53.718;19.946;2022-12-07T18:49:29;1.93;87.88
65766;SHT31;52915;53.718;19.946;2022-12-07T18:54:34;1.93;87.65
65766;SHT31;52915;53.718;19.946;2022-12-07T18:59:37;1.95;87.55
65766;SHT31;52915;53.718;19.946;2022-12-07T19:04:52;1.93;87.46
65766;SHT31;52915;53.718;19.946;2022-12-07T19:09:56;1.86;87.55
65766;SHT31;52915;53.718;19.946;2022-12-07T19:15:02;1.85;87.63
65766;SHT31;52915;53.718;19.946;2022-12-07T19:20:09;1.86;87.58
65766;SHT31;52915;53.718;19.946;2022-12-07T19:25:18;1.90;87.54
65766;SHT31;52915;53.718;19.946;2022-12-07T19:30:23;1.92;87.39
65766;SHT31;52915;53.718;19.946;2022-12-07T19:35:27;1.90;87.29
65766;SHT31;52915;53.718;19.946;2022-12-07T19:40:31;1.90;87.24
65766;SHT31;52915;53.718;19.946;2022-12-07T19:45:35;1.90;87.14
65766;SHT31;52915;53.718;19.946;2022-12-07T19:50:39;1.88;87.05
65766;SHT31;52915;53.718;19.946;2022-12-07T19:55:43;1.85;86.95
65766;SHT31;52915;53.718;19.946;2022-12-07T20:00:50;1.85;86.84
65766;SHT31;52915;53.718;19.946;2022-12-07T20:05:56;1.83;86.75
65766;SHT31;52915;53.718;19.946;2022-12-07T20:11:00;1.78;86.64
65766;SHT31;52915;53.718;19.946;2022-12-07T20:16:30;1.76;86.57
65766;SHT31;52915;53.718;19.946;2022-12-07T20:21:34;1.76;86.46
65766;SHT31;52915;53.718;19.946;2022-12-07T20:26:41;1.76;86.29
65766;SHT31;52915;53.718;19.946;2022-12-07T20:31:47;1.75;86.32
65766;SHT31;52915;53.718;19.946;2022-12-07T20:36:53;1.72;86.30
65766;SHT31;52915;53.718;19.946;2022-12-07T20:41:58;1.71;86.18
65766;SHT31;52915;53.718;19.946;2022-12-07T20:47:20;1.72;86.31
65766;SHT31;52915;53.718;19.946;2022-12-07T20:52:24;1.70;86.42
65766;SHT31;52915;53.718;19.946;2022-12-07T20:57:28;1.66;86.54
65766;SHT31;52915;53.718;19.946;2022-12-07T21:02:33;1.66;86.48
65766;SHT31;52915;53.718;19.946;2022-12-07T21:07:37;1.66;86.17
65766;SHT31;52915;53.718;19.946;2022-12-07T21:12:41;1.65;86.28
65766;SHT31;52915;53.718;19.946;2022-12-07T21:17:45;1.64;86.28
65766;SHT31;52915;53.718;19.946;2022-12-07T21:22:49;1.64;86.18
65766;SHT31;52915;53.718;19.946;2022-12-07T21:27:53;1.61;85.86
65766;SHT31;52915;53.718;19.946;2022-12-07T21:32:57;1.63;85.75
65766;SHT31;52915;53.718;19.946;2022-12-07T21:38:01;1.65;85.68
65766;SHT31;52915;53.718;19.946;2022-12-07T21:43:04;1.62;85.68
65766;SHT31;52915;53.718;19.946;2022-12-07T21:48:08;1.59;85.59
65766;SHT31;52915;53.718;19.946;2022-12-07T21:53:12;1.58;85.41
65766;SHT31;52915;53.718;19.946;2022-12-07T21:58:17;1.57;85.21
65766;SHT31;52915;53.718;19.946;2022-12-07T22:03:21;1.55;85.13
65766;SHT31;52915;53.718;19.946;2022-12-07T22:08:25;1.55;84.92
65766;SHT31;52915;53.718;19.946;2022-12-07T22:13:30;1.53;84.75
65766;SHT31;52915;53.718;19.946;2022-12-07T22:18:54;1.49;84.71
65766;SHT31;52915;53.718;19.946;2022-12-07T22:23:59;1.47;84.57
65766;SHT31;52915;53.718;19.946;2022-12-07T22:29:04;1.44;84.62
65766;SHT31;52915;53.718;19.946;2022-12-07T22:34:16;1.43;84.48
65766;SHT31;52915;53.718;19.946;2022-12-07T22:39:21;1.46;84.24
65766;SHT31;52915;53.718;19.946;2022-12-07T22:44:24;1.45;84.30
65766;SHT31;52915;53.718;19.946;2022-12-07T22:49:28;1.46;84.33
65766;SHT31;52915;53.718;19.946;2022-12-07T22:54:32;1.44;84.37
65766;SHT31;52915;53.718;19.946;2022-12-07T22:59:36;1.43;84.43
65766;SHT31;52915;53.718;19.946;2022-12-07T23:04:40;1.44;84.32
65766;SHT31;52915;53.718;19.946;2022-12-07T23:09:44;1.41;84.23
65766;SHT31;52915;53.718;19.946;2022-12-07T23:14:48;1.41;83.89
65766;SHT31;52915;53.718;19.946;2022-12-07T23:19:55;1.42;83.39
65766;SHT31;52915;53.718;19.946;2022-12-07T23:24:59;1.41;83.04
65766;SHT31;52915;53.718;19.946;2022-12-07T23:30:04;1.38;82.93
65766;SHT31;52915;53.718;19.946;2022-12-07T23:35:08;1.36;82.82
65766;SHT31;52915;53.718;19.946;2022-12-07T23:40:12;1.35;82.85
65766;SHT31;52915;53.718;19.946;2022-12-07T23:45:16;1.32;82.79
65766;SHT31;52915;53.718;19.946;2022-12-07T23:50:20;1.33;82.92
65766;SHT31;52915;53.718;19.946;2022-12-07T23:55:24;1.36;82.62
